sensor_id;sensor_type;location;lat;lon;timestamp;P1;durP1;ratioP1;P2;durP2;ratioP2
44456;SDS011;30159;49.316;8.558;2023-12-20T00:01:28;4.27;;;3.27;;
44456;SDS011;30159;49.316;8.558;2023-12-20T00:03:55;2.93;;;2.40;;
44456;SDS011;30159;49.316;8.558;2023-12-20T00:06:22;15.13;;;2.90;;
44456;SDS011;30159;49.316;8.558;2023-12-20T00:08:49;4.47;;;2.63;;
44456;SDS011;30159;49.316;8.558;2023-12-20T00:11:15;4.23;;;3.00;;
44456;SDS011;30159;49.316;8.558;2023-12-20T00:13:44;6.93;;;2.70;;
44456;SDS011;30159;49.316;8.558;2023-12-20T00:16:13;7.87;;;3.30;;
44456;SDS011;30159;49.316;8.558;2023-12-20T00:18:39;4.60;;;2.60;;
44456;SDS011;30159;49.316;8.558;2023-12-20T00:21:06;2.93;;;2.43;;
44456;SDS011;30159;49.316;8.558;2023-12-20T00:23:33;3.43;;;2.50;;
44456;SDS011;30159;49.316;8.558;2023-12-20T00:25:59;5.27;;;3.03;;
44456;SDS011;30159;49.316;8.558;2023-12-20T00:28:26;4.53;;;3.10;;
44456;SDS011;30159;49.316;8.558;2023-12-20T00:30:54;5.23;;;2.30;;
44456;SDS011;30159;49.316;8.558;2023-12-20T00:33:21;2.93;;;2.23;;
44456;SDS011;30159;49.316;8.558;2023-12-20T00:35:47;3.67;;;2.00;;
44456;SDS011;30159;49.316;8.558;2023-12-20T00:38:14;3.53;;;2.33;;
44456;SDS011;30159;49.316;8.558;2023-12-20T00:40:40;3.57;;;2.27;;
44456;SDS011;30159;49.316;8.558;2023-12-20T00:43:07;3.60;;;2.80;;
44456;SDS011;30159;49.316;8.558;2023-12-20T00:45:34;5.20;;;2.40;;
44456;SDS011;30159;49.316;8.558;2023-12-20T00:48:02;6.30;;;3.93;;
44456;SDS011;30159;49.316;8.558;2023-12-20T00:50:28;3.60;;;2.63;;
44456;SDS011;30159;49.316;8.558;2023-12-20T00:52:55;2.67;;;2.47;;
44456;SDS011;30159;49.316;8.558;2023-12-20T00:55:22;4.43;;;2.50;;
44456;SDS011;30159;49.316;8.558;2023-12-20T00:57:48;3.83;;;2.70;;
44456;SDS011;30159;49.316;8.558;2023-12-20T01:00:15;3.67;;;2.90;;
44456;SDS011;30159;49.316;8.558;2023-12-20T01:02:42;5.50;;;3.10;;
44456;SDS011;30159;49.316;8.558;2023-12-20T01:05:10;5.40;;;2.40;;
44456;SDS011;30159;49.316;8.558;2023-12-20T01:07:36;3.00;;;2.70;;
44456;SDS011;30159;49.316;8.558;2023-12-20T01:10:03;3.30;;;2.30;;
44456;SDS011;30159;49.316;8.558;2023-12-20T01:12:30;3.13;;;2.83;;
44456;SDS011;30159;49.316;8.558;2023-12-20T01:14:57;3.90;;;2.13;;
44456;SDS011;30159;49.316;8.558;2023-12-20T01:17:24;5.37;;;2.37;;
44456;SDS011;30159;49.316;8.558;2023-12-20T01:19:50;3.33;;;3.03;;
44456;SDS011;30159;49.316;8.558;2023-12-20T01:22:18;4.87;;;2.80;;
44456;SDS011;30159;49.316;8.558;2023-12-20T01:24:45;3.53;;;2.70;;
44456;SDS011;30159;49.316;8.558;2023-12-20T01:27:11;5.07;;;1.93;;
44456;SDS011;30159;49.316;8.558;2023-12-20T01:29:38;5.13;;;2.57;;
44456;SDS011;30159;49.316;8.558;2023-12-20T01:32:05;4.23;;;2.93;;
44456;SDS011;30159;49.316;8.558;2023-12-20T01:34:32;3.50;;;2.13;;
44456;SDS011;30159;49.316;8.558;2023-12-20T01:36:58;4.30;;;2.93;;
44456;SDS011;30159;49.316;8.558;2023-12-20T01:39:26;4.97;;;3.67;;
44456;SDS011;30159;49.316;8.558;2023-12-20T01:41:53;4.80;;;2.47;;
44456;SDS011;30159;49.316;8.558;2023-12-20T01:44:20;4.83;;;2.60;;
44456;SDS011;30159;49.316;8.558;2023-12-20T01:46:46;3.70;;;2.40;;
44456;SDS011;30159;49.316;8.558;2023-12-20T01:49:14;3.13;;;2.67;;
44456;SDS011;30159;49.316;8.558;2023-12-20T01:51:41;8.10;;;4.87;;
44456;SDS011;30159;49.316;8.558;2023-12-20T01:54:08;3.30;;;3.00;;
44456;SDS011;30159;49.316;8.558;2023-12-20T01:56:36;3.03;;;2.57;;
44456;SDS011;30159;49.316;8.558;2023-12-20T01:59:03;4.17;;;2.60;;
44456;SDS011;30159;49.316;8.558;2023-12-20T02:01:30;8.53;;;3.37;;
44456;SDS011;30159;49.316;8.558;2023-12-20T02:03:57;6.37;;;2.90;;
44456;SDS011;30159;49.316;8.558;2023-12-20T02:06:25;4.73;;;3.60;;
44456;SDS011;30159;49.316;8.558;2023-12-20T02:08:56;3.10;;;2.80;;
44456;SDS011;30159;49.316;8.558;2023-12-20T02:11:23;3.77;;;2.60;;
44456;SDS011;30159;49.316;8.558;2023-12-20T02:13:52;3.67;;;2.50;;
44456;SDS011;30159;49.316;8.558;2023-12-20T02:16:19;5.97;;;3.00;;
44456;SDS011;30159;49.316;8.558;2023-12-20T02:18:47;2.60;;;2.33;;
44456;SDS011;30159;49.316;8.558;2023-12-20T02:21:14;5.33;;;3.23;;
44456;SDS011;30159;49.316;8.558;2023-12-20T02:23:42;4.73;;;3.10;;
44456;SDS011;30159;49.316;8.558;2023-12-20T02:26:09;5.53;;;3.47;;
44456;SDS011;30159;49.316;8.558;2023-12-20T02:28:35;4.90;;;2.70;;
44456;SDS011;30159;49.316;8.558;2023-12-20T02:31:02;3.23;;;2.60;;
44456;SDS011;30159;49.316;8.558;2023-12-20T02:33:31;4.13;;;2.27;;
44456;SDS011;30159;49.316;8.558;2023-12-20T02:35:58;3.17;;;2.50;;
44456;SDS011;30159;49.316;8.558;2023-12-20T02:38:24;4.27;;;2.13;;
44456;SDS011;30159;49.316;8.558;2023-12-20T02:40:52;2.13;;;1.93;;
44456;SDS011;30159;49.316;8.558;2023-12-20T02:43:19;2.57;;;2.03;;
44456;SDS011;30159;49.316;8.558;2023-12-20T02:45:46;2.83;;;2.20;;
44456;SDS011;30159;49.316;8.558;2023-12-20T02:48:12;3.87;;;2.07;;
44456;SDS011;30159;49.316;8.558;2023-12-20T02:50:39;2.80;;;1.60;;
44456;SDS011;30159;49.316;8.558;2023-12-20T02:53:06;3.13;;;2.40;;
44456;SDS011;30159;49.316;8.558;2023-12-20T02:55:32;6.30;;;3.50;;
44456;SDS011;30159;49.316;8.558;2023-12-20T02:58:00;2.90;;;2.23;;
44456;SDS011;30159;49.316;8.558;2023-12-20T03:00:27;2.57;;;2.10;;
44456;SDS011;30159;49.316;8.558;2023-12-20T03:02:54;3.30;;;2.23;;
44456;SDS011;30159;49.316;8.558;2023-12-20T03:05:20;2.63;;;1.70;;
44456;SDS011;30159;49.316;8.558;2023-12-20T03:07:47;2.40;;;1.90;;
44456;SDS011;30159;49.316;8.558;2023-12-20T03:10:14;2.50;;;1.80;;
44456;SDS011;30159;49.316;8.558;2023-12-20T03:12:40;2.33;;;2.13;;
44456;SDS011;30159;49.316;8.558;2023-12-20T03:15:09;2.43;;;1.80;;
44456;SDS011;30159;49.316;8.558;2023-12-20T03:17:36;3.60;;;2.67;;
44456;SDS011;30159;49.316;8.558;2023-12-20T03:20:02;1.93;;;1.73;;
44456;SDS011;30159;49.316;8.558;2023-12-20T03:22:30;4.00;;;2.27;;
44456;SDS011;30159;49.316;8.558;2023-12-20T03:24:56;2.47;;;2.20;;
44456;SDS011;30159;49.316;8.558;2023-12-20T03:27:23;4.07;;;3.10;;
44456;SDS011;30159;49.316;8.558;2023-12-20T03:29:49;3.40;;;2.73;;
44456;SDS011;30159;49.316;8.558;2023-12-20T03:32:17;3.60;;;2.67;;
44456;SDS011;30159;49.316;8.558;2023-12-20T03:34:44;3.07;;;2.50;;
44456;SDS011;30159;49.316;8.558;2023-12-20T03:37:11;2.50;;;2.10;;
44456;SDS011;30159;49.316;8.558;2023-12-20T03:39:37;2.77;;;2.00;;
44456;SDS011;30159;49.316;8.558;2023-12-20T03:42:04;1.80;;;1.47;;
44456;SDS011;30159;49.316;8.558;2023-12-20T03:44:31;1.33;;;1.20;;
44456;SDS011;30159;49.316;8.558;2023-12-20T03:46:57;2.40;;;1.73;;
44456;SDS011;30159;49.316;8.558;2023-12-20T03:49:25;1.53;;;1.30;;
44456;SDS011;30159;49.316;8.558;2023-12-20T03:51:52;2.00;;;1.70;;
44456;SDS011;30159;49.316;8.558;2023-12-20T03:54:18;1.77;;;1.57;;
44456;SDS011;30159;49.316;8.558;2023-12-20T03:56:45;1.93;;;1.57;;
44456;SDS011;30159;49.316;8.558;2023-12-20T03:59:12;1.57;;;1.30;;
44456;SDS011;30159;49.316;8.558;2023-12-20T04:01:39;2.60;;;1.93;;
44456;SDS011;30159;49.316;8.558;2023-12-20T04:04:09;2.10;;;1.90;;
44456;SDS011;30159;49.316;8.558;2023-12-20T04:06:37;1.63;;;1.50;;
44456;SDS011;30159;49.316;8.558;2023-12-20T04:09:04;1.80;;;1.33;;
44456;SDS011;30159;49.316;8.558;2023-12-20T04:11:31;1.53;;;1.30;;
44456;SDS011;30159;49.316;8.558;2023-12-20T04:13:57;1.40;;;1.20;;
44456;SDS011;30159;49.316;8.558;2023-12-20T04:16:24;2.00;;;1.50;;
44456;SDS011;30159;49.316;8.558;2023-12-20T04:18:51;1.23;;;1.13;;
44456;SDS011;30159;49.316;8.558;2023-12-20T04:21:17;1.80;;;1.63;;
44456;SDS011;30159;49.316;8.558;2023-12-20T04:23:45;1.90;;;1.57;;
44456;SDS011;30159;49.316;8.558;2023-12-20T04:26:12;1.40;;;1.30;;
44456;SDS011;30159;49.316;8.558;2023-12-20T04:28:39;1.30;;;1.20;;
44456;SDS011;30159;49.316;8.558;2023-12-20T04:31:05;2.27;;;2.07;;
44456;SDS011;30159;49.316;8.558;2023-12-20T04:33:32;3.60;;;2.03;;
44456;SDS011;30159;49.316;8.558;2023-12-20T04:35:59;2.30;;;2.10;;
44456;SDS011;30159;49.316;8.558;2023-12-20T04:38:25;2.43;;;2.00;;
44456;SDS011;30159;49.316;8.558;2023-12-20T04:40:53;1.63;;;1.27;;
44456;SDS011;30159;49.316;8.558;2023-12-20T04:43:20;3.13;;;1.50;;
44456;SDS011;30159;49.316;8.558;2023-12-20T04:45:47;1.67;;;1.53;;
44456;SDS011;30159;49.316;8.558;2023-12-20T04:48:13;2.60;;;2.30;;
44456;SDS011;30159;49.316;8.558;2023-12-20T04:50:40;1.53;;;1.33;;
44456;SDS011;30159;49.316;8.558;2023-12-20T04:53:07;1.30;;;1.10;;
44456;SDS011;30159;49.316;8.558;2023-12-20T04:55:33;1.80;;;1.40;;
44456;SDS011;30159;49.316;8.558;2023-12-20T04:58:01;1.50;;;1.40;;
44456;SDS011;30159;49.316;8.558;2023-12-20T05:00:28;3.57;;;1.60;;
44456;SDS011;30159;49.316;8.558;2023-12-20T05:02:55;2.00;;;1.40;;
44456;SDS011;30159;49.316;8.558;2023-12-20T05:05:22;1.77;;;1.33;;
44456;SDS011;30159;49.316;8.558;2023-12-20T05:07:48;1.90;;;1.50;;
44456;SDS011;30159;49.316;8.558;2023-12-20T05:10:15;1.90;;;1.70;;
44456;SDS011;30159;49.316;8.558;2023-12-20T05:12:42;2.30;;;1.67;;
44456;SDS011;30159;49.316;8.558;2023-12-20T05:15:10;2.60;;;1.57;;
44456;SDS011;30159;49.316;8.558;2023-12-20T05:17:36;1.80;;;1.63;;
44456;SDS011;30159;49.316;8.558;2023-12-20T05:20:04;2.10;;;1.60;;
44456;SDS011;30159;49.316;8.558;2023-12-20T05:22:31;3.77;;;1.70;;
44456;SDS011;30159;49.316;8.558;2023-12-20T05:24:58;2.30;;;2.10;;
44456;SDS011;30159;49.316;8.558;2023-12-20T05:27:25;2.50;;;1.73;;
44456;SDS011;30159;49.316;8.558;2023-12-20T05:29:51;3.97;;;1.80;;
44456;SDS011;30159;49.316;8.558;2023-12-20T05:32:19;2.80;;;1.70;;
44456;SDS011;30159;49.316;8.558;2023-12-20T05:34:46;3.00;;;1.70;;
44456;SDS011;30159;49.316;8.558;2023-12-20T05:37:13;5.83;;;2.00;;
44456;SDS011;30159;49.316;8.558;2023-12-20T05:39:39;1.70;;;1.60;;
44456;SDS011;30159;49.316;8.558;2023-12-20T05:42:06;3.17;;;1.40;;
44456;SDS011;30159;49.316;8.558;2023-12-20T05:44:32;2.10;;;1.90;;
44456;SDS011;30159;49.316;8.558;2023-12-20T05:46:59;2.53;;;1.67;;
44456;SDS011;30159;49.316;8.558;2023-12-20T05:49:27;2.00;;;1.80;;
44456;SDS011;30159;49.316;8.558;2023-12-20T05:51:54;1.80;;;1.70;;
44456;SDS011;30159;49.316;8.558;2023-12-20T05:54:20;2.07;;;1.50;;
44456;SDS011;30159;49.316;8.558;2023-12-20T05:56:48;1.93;;;1.83;;
44456;SDS011;30159;49.316;8.558;2023-12-20T05:59:15;1.50;;;1.30;;
44456;SDS011;30159;49.316;8.558;2023-12-20T06:01:42;1.77;;;1.67;;
44456;SDS011;30159;49.316;8.558;2023-12-20T06:04:09;1.30;;;1.20;;
44456;SDS011;30159;49.316;8.558;2023-12-20T06:06:41;1.40;;;1.20;;
44456;SDS011;30159;49.316;8.558;2023-12-20T06:09:08;1.97;;;1.43;;
44456;SDS011;30159;49.316;8.558;2023-12-20T06:11:35;1.13;;;1.03;;
44456;SDS011;30159;49.316;8.558;2023-12-20T06:14:01;1.47;;;1.13;;
44456;SDS011;30159;49.316;8.558;2023-12-20T06:16:28;1.30;;;1.20;;
44456;SDS011;30159;49.316;8.558;2023-12-20T06:18:55;2.33;;;1.20;;
44456;SDS011;30159;49.316;8.558;2023-12-20T06:21:21;1.47;;;1.37;;
44456;SDS011;30159;49.316;8.558;2023-12-20T06:23:49;1.00;;;0.90;;
44456;SDS011;30159;49.316;8.558;2023-12-20T06:26:16;1.40;;;1.30;;
44456;SDS011;30159;49.316;8.558;2023-12-20T06:28:42;2.57;;;1.67;;
44456;SDS011;30159;49.316;8.558;2023-12-20T06:31:09;1.63;;;1.40;;
44456;SDS011;30159;49.316;8.558;2023-12-20T06:33:36;1.50;;;1.30;;
44456;SDS011;30159;49.316;8.558;2023-12-20T06:36:03;1.50;;;1.40;;
44456;SDS011;30159;49.316;8.558;2023-12-20T06:38:32;1.53;;;1.43;;
44456;SDS011;30159;49.316;8.558;2023-12-20T06:41:00;7.50;;;1.40;;
44456;SDS011;30159;49.316;8.558;2023-12-20T06:43:30;2.60;;;1.20;;
44456;SDS011;30159;49.316;8.558;2023-12-20T06:45:57;1.90;;;1.50;;
44456;SDS011;30159;49.316;8.558;2023-12-20T06:48:24;2.43;;;1.77;;
44456;SDS011;30159;49.316;8.558;2023-12-20T06:50:50;1.90;;;1.20;;
44456;SDS011;30159;49.316;8.558;2023-12-20T06:53:17;1.47;;;1.37;;
44456;SDS011;30159;49.316;8.558;2023-12-20T06:55:44;1.80;;;1.53;;
44456;SDS011;30159;49.316;8.558;2023-12-20T06:58:12;1.70;;;1.23;;
44456;SDS011;30159;49.316;8.558;2023-12-20T07:00:39;3.20;;;2.00;;
44456;SDS011;30159;49.316;8.558;2023-12-20T07:03:06;1.27;;;1.17;;
44456;SDS011;30159;49.316;8.558;2023-12-20T07:05:32;1.57;;;1.23;;
44456;SDS011;30159;49.316;8.558;2023-12-20T07:07:59;2.93;;;1.33;;
44456;SDS011;30159;49.316;8.558;2023-12-20T07:10:25;1.30;;;1.20;;
44456;SDS011;30159;49.316;8.558;2023-12-20T07:12:52;1.50;;;1.30;;
44456;SDS011;30159;49.316;8.558;2023-12-20T07:15:21;1.40;;;1.30;;
44456;SDS011;30159;49.316;8.558;2023-12-20T07:17:48;1.70;;;1.50;;
44456;SDS011;30159;49.316;8.558;2023-12-20T07:20:15;2.80;;;1.47;;
44456;SDS011;30159;49.316;8.558;2023-12-20T07:22:42;2.10;;;1.33;;
44456;SDS011;30159;49.316;8.558;2023-12-20T07:25:09;2.20;;;1.57;;
44456;SDS011;30159;49.316;8.558;2023-12-20T07:27:36;1.90;;;1.40;;
44456;SDS011;30159;49.316;8.558;2023-12-20T07:30:03;2.70;;;1.23;;
44456;SDS011;30159;49.316;8.558;2023-12-20T07:32:31;2.13;;;1.33;;
44456;SDS011;30159;49.316;8.558;2023-12-20T07:34:58;2.97;;;1.50;;
44456;SDS011;30159;49.316;8.558;2023-12-20T07:37:25;2.20;;;1.90;;
44456;SDS011;30159;49.316;8.558;2023-12-20T07:39:51;2.63;;;2.43;;
44456;SDS011;30159;49.316;8.558;2023-12-20T07:42:18;2.07;;;1.30;;
44456;SDS011;30159;49.316;8.558;2023-12-20T07:44:45;1.47;;;1.37;;
44456;SDS011;30159;49.316;8.558;2023-12-20T07:47:11;1.90;;;1.80;;
44456;SDS011;30159;49.316;8.558;2023-12-20T07:49:42;1.30;;;1.20;;
44456;SDS011;30159;49.316;8.558;2023-12-20T07:52:08;1.30;;;1.10;;
44456;SDS011;30159;49.316;8.558;2023-12-20T07:54:35;4.03;;;1.37;;
44456;SDS011;30159;49.316;8.558;2023-12-20T07:57:02;1.87;;;1.77;;
44456;SDS011;30159;49.316;8.558;2023-12-20T07:59:28;2.47;;;1.80;;
44456;SDS011;30159;49.316;8.558;2023-12-20T08:01:55;2.77;;;1.70;;
44456;SDS011;30159;49.316;8.558;2023-12-20T08:04:22;2.83;;;1.77;;
44456;SDS011;30159;49.316;8.558;2023-12-20T08:06:50;2.50;;;2.00;;
44456;SDS011;30159;49.316;8.558;2023-12-20T08:09:16;1.93;;;1.67;;
44456;SDS011;30159;49.316;8.558;2023-12-20T08:11:44;1.50;;;1.37;;
44456;SDS011;30159;49.316;8.558;2023-12-20T08:14:11;2.83;;;1.50;;
44456;SDS011;30159;49.316;8.558;2023-12-20T08:16:38;2.73;;;2.20;;
44456;SDS011;30159;49.316;8.558;2023-12-20T08:19:05;2.23;;;2.03;;
44456;SDS011;30159;49.316;8.558;2023-12-20T08:21:31;2.87;;;1.43;;
44456;SDS011;30159;49.316;8.558;2023-12-20T08:23:59;1.93;;;1.20;;
44456;SDS011;30159;49.316;8.558;2023-12-20T08:26:26;2.10;;;1.50;;
44456;SDS011;30159;49.316;8.558;2023-12-20T08:28:53;1.60;;;1.40;;
44456;SDS011;30159;49.316;8.558;2023-12-20T08:31:20;2.07;;;1.60;;
44456;SDS011;30159;49.316;8.558;2023-12-20T08:33:47;1.80;;;1.40;;
44456;SDS011;30159;49.316;8.558;2023-12-20T08:36:17;1.87;;;1.77;;
44456;SDS011;30159;49.316;8.558;2023-12-20T08:38:44;2.10;;;1.80;;
44456;SDS011;30159;49.316;8.558;2023-12-20T08:41:12;1.93;;;1.60;;
44456;SDS011;30159;49.316;8.558;2023-12-20T08:43:39;1.80;;;1.70;;
44456;SDS011;30159;49.316;8.558;2023-12-20T08:46:06;1.53;;;1.40;;
44456;SDS011;30159;49.316;8.558;2023-12-20T08:48:34;2.73;;;1.67;;
44456;SDS011;30159;49.316;8.558;2023-12-20T08:51:02;2.10;;;1.77;;
44456;SDS011;30159;49.316;8.558;2023-12-20T08:53:28;6.63;;;2.10;;
44456;SDS011;30159;49.316;8.558;2023-12-20T08:55:55;2.50;;;1.23;;
44456;SDS011;30159;49.316;8.558;2023-12-20T08:58:27;1.30;;;1.20;;
44456;SDS011;30159;49.316;8.558;2023-12-20T09:00:54;1.37;;;1.27;;
44456;SDS011;30159;49.316;8.558;2023-12-20T09:03:21;3.23;;;1.40;;
44456;SDS011;30159;49.316;8.558;2023-12-20T09:05:47;1.60;;;1.10;;
44456;SDS011;30159;49.316;8.558;2023-12-20T09:08:14;3.83;;;1.20;;
44456;SDS011;30159;49.316;8.558;2023-12-20T09:10:40;4.30;;;1.30;;
44456;SDS011;30159;49.316;8.558;2023-12-20T09:13:07;1.90;;;1.10;;
44456;SDS011;30159;49.316;8.558;2023-12-20T09:15:35;1.50;;;1.40;;
44456;SDS011;30159;49.316;8.558;2023-12-20T09:18:02;1.40;;;1.30;;
44456;SDS011;30159;49.316;8.558;2023-12-20T09:20:28;1.00;;;0.90;;
44456;SDS011;30159;49.316;8.558;2023-12-20T09:22:55;1.63;;;1.07;;
44456;SDS011;30159;49.316;8.558;2023-12-20T09:25:22;1.30;;;0.90;;
44456;SDS011;30159;49.316;8.558;2023-12-20T09:27:49;2.90;;;1.20;;
44456;SDS011;30159;49.316;8.558;2023-12-20T09:30:15;1.03;;;0.90;;
44456;SDS011;30159;49.316;8.558;2023-12-20T09:32:43;2.67;;;1.10;;
44456;SDS011;30159;49.316;8.558;2023-12-20T09:35:11;0.90;;;0.80;;
44456;SDS011;30159;49.316;8.558;2023-12-20T09:37:37;0.90;;;0.80;;
44456;SDS011;30159;49.316;8.558;2023-12-20T09:40:06;1.57;;;1.17;;
44456;SDS011;30159;49.316;8.558;2023-12-20T09:42:37;2.60;;;1.00;;
44456;SDS011;30159;49.316;8.558;2023-12-20T09:45:10;1.10;;;1.00;;
44456;SDS011;30159;49.316;8.558;2023-12-20T09:47:41;1.60;;;0.80;;
44456;SDS011;30159;49.316;8.558;2023-12-20T09:50:10;1.17;;;0.97;;
44456;SDS011;30159;49.316;8.558;2023-12-20T09:52:37;2.20;;;1.00;;
44456;SDS011;30159;49.316;8.558;2023-12-20T09:55:06;3.20;;;1.20;;
44456;SDS011;30159;49.316;8.558;2023-12-20T09:57:34;1.00;;;0.80;;
44456;SDS011;30159;49.316;8.558;2023-12-20T10:00:01;1.37;;;1.10;;
44456;SDS011;30159;49.316;8.558;2023-12-20T10:02:29;1.73;;;1.00;;
44456;SDS011;30159;49.316;8.558;2023-12-20T10:04:58;2.30;;;0.83;;
44456;SDS011;30159;49.316;8.558;2023-12-20T10:07:26;1.97;;;1.00;;
44456;SDS011;30159;49.316;8.558;2023-12-20T10:09:54;1.40;;;0.70;;
44456;SDS011;30159;49.316;8.558;2023-12-20T10:12:21;1.07;;;0.80;;
44456;SDS011;30159;49.316;8.558;2023-12-20T10:14:48;2.67;;;0.90;;
44456;SDS011;30159;49.316;8.558;2023-12-20T10:17:16;1.13;;;0.90;;
44456;SDS011;30159;49.316;8.558;2023-12-20T10:19:43;1.73;;;0.90;;
44456;SDS011;30159;49.316;8.558;2023-12-20T10:22:11;1.83;;;1.17;;
44456;SDS011;30159;49.316;8.558;2023-12-20T10:24:38;1.00;;;0.90;;
44456;SDS011;30159;49.316;8.558;2023-12-20T10:27:07;1.00;;;0.90;;
44456;SDS011;30159;49.316;8.558;2023-12-20T10:29:34;1.33;;;1.23;;
44456;SDS011;30159;49.316;8.558;2023-12-20T10:34:50;1.50;;;1.27;;
44456;SDS011;30159;49.316;8.558;2023-12-20T10:37:18;1.37;;;0.90;;
44456;SDS011;30159;49.316;8.558;2023-12-20T10:39:46;1.77;;;1.00;;
44456;SDS011;30159;49.316;8.558;2023-12-20T10:42:16;2.03;;;0.90;;
44456;SDS011;30159;49.316;8.558;2023-12-20T10:44:43;1.10;;;1.00;;
44456;SDS011;30159;49.316;8.558;2023-12-20T10:47:10;1.80;;;1.03;;
44456;SDS011;30159;49.316;8.558;2023-12-20T10:49:39;1.30;;;0.80;;
44456;SDS011;30159;49.316;8.558;2023-12-20T10:52:06;1.00;;;0.90;;
44456;SDS011;30159;49.316;8.558;2023-12-20T10:54:36;2.70;;;0.93;;
44456;SDS011;30159;49.316;8.558;2023-12-20T10:57:04;1.50;;;1.00;;
44456;SDS011;30159;49.316;8.558;2023-12-20T10:59:32;11.47;;;1.10;;
44456;SDS011;30159;49.316;8.558;2023-12-20T11:02:00;6.53;;;1.00;;
44456;SDS011;30159;49.316;8.558;2023-12-20T11:04:31;1.23;;;1.00;;
44456;SDS011;30159;49.316;8.558;2023-12-20T11:07:06;2.33;;;1.10;;
44456;SDS011;30159;49.316;8.558;2023-12-20T11:09:53;2.50;;;1.00;;
44456;SDS011;30159;49.316;8.558;2023-12-20T11:12:28;1.10;;;1.00;;
44456;SDS011;30159;49.316;8.558;2023-12-20T11:15:01;3.90;;;0.90;;
44456;SDS011;30159;49.316;8.558;2023-12-20T11:17:29;3.33;;;0.90;;
44456;SDS011;30159;49.316;8.558;2023-12-20T11:20:04;1.10;;;0.97;;
44456;SDS011;30159;49.316;8.558;2023-12-20T11:22:33;1.70;;;0.93;;
44456;SDS011;30159;49.316;8.558;2023-12-20T11:25:04;1.10;;;1.00;;
44456;SDS011;30159;49.316;8.558;2023-12-20T11:27:33;1.43;;;1.20;;
44456;SDS011;30159;49.316;8.558;2023-12-20T11:30:00;1.43;;;0.93;;
44456;SDS011;30159;49.316;8.558;2023-12-20T11:32:33;5.33;;;1.20;;
44456;SDS011;30159;49.316;8.558;2023-12-20T11:35:01;1.13;;;0.90;;
44456;SDS011;30159;49.316;8.558;2023-12-20T11:37:43;1.73;;;1.10;;
44456;SDS011;30159;49.316;8.558;2023-12-20T11:40:14;3.53;;;1.10;;
44456;SDS011;30159;49.316;8.558;2023-12-20T11:42:42;1.43;;;1.17;;
44456;SDS011;30159;49.316;8.558;2023-12-20T11:45:09;3.50;;;1.47;;
44456;SDS011;30159;49.316;8.558;2023-12-20T11:47:39;4.43;;;1.87;;
44456;SDS011;30159;49.316;8.558;2023-12-20T11:50:07;2.33;;;1.60;;
44456;SDS011;30159;49.316;8.558;2023-12-20T11:52:33;1.30;;;1.20;;
44456;SDS011;30159;49.316;8.558;2023-12-20T11:55:01;3.07;;;1.17;;
44456;SDS011;30159;49.316;8.558;2023-12-20T11:57:30;2.70;;;1.00;;
44456;SDS011;30159;49.316;8.558;2023-12-20T11:59:57;1.20;;;1.10;;
44456;SDS011;30159;49.316;8.558;2023-12-20T12:02:23;1.30;;;1.20;;
44456;SDS011;30159;49.316;8.558;2023-12-20T12:04:50;1.73;;;1.30;;
44456;SDS011;30159;49.316;8.558;2023-12-20T12:07:17;2.80;;;1.20;;
44456;SDS011;30159;49.316;8.558;2023-12-20T12:09:46;1.80;;;0.93;;
44456;SDS011;30159;49.316;8.558;2023-12-20T12:12:12;1.87;;;1.10;;
44456;SDS011;30159;49.316;8.558;2023-12-20T12:14:41;1.33;;;1.03;;
44456;SDS011;30159;49.316;8.558;2023-12-20T12:17:10;1.93;;;1.10;;
44456;SDS011;30159;49.316;8.558;2023-12-20T12:19:37;1.73;;;1.10;;
44456;SDS011;30159;49.316;8.558;2023-12-20T12:22:04;1.63;;;1.47;;
44456;SDS011;30159;49.316;8.558;2023-12-20T12:24:32;2.40;;;1.00;;
44456;SDS011;30159;49.316;8.558;2023-12-20T12:26:59;3.07;;;1.30;;
44456;SDS011;30159;49.316;8.558;2023-12-20T12:29:25;3.57;;;1.00;;
44456;SDS011;30159;49.316;8.558;2023-12-20T12:31:53;1.30;;;1.20;;
44456;SDS011;30159;49.316;8.558;2023-12-20T12:34:20;2.03;;;1.57;;
44456;SDS011;30159;49.316;8.558;2023-12-20T12:36:48;2.70;;;1.00;;
44456;SDS011;30159;49.316;8.558;2023-12-20T12:39:14;1.73;;;1.23;;
44456;SDS011;30159;49.316;8.558;2023-12-20T12:41:41;1.40;;;1.27;;
44456;SDS011;30159;49.316;8.558;2023-12-20T12:44:08;6.13;;;1.30;;
44456;SDS011;30159;49.316;8.558;2023-12-20T12:46:35;1.00;;;0.90;;
44456;SDS011;30159;49.316;8.558;2023-12-20T12:49:03;1.60;;;1.30;;
44456;SDS011;30159;49.316;8.558;2023-12-20T12:51:29;1.10;;;1.00;;
44456;SDS011;30159;49.316;8.558;2023-12-20T12:54:05;1.57;;;1.47;;
44456;SDS011;30159;49.316;8.558;2023-12-20T12:56:31;1.20;;;1.00;;
44456;SDS011;30159;49.316;8.558;2023-12-20T12:58:58;3.80;;;1.03;;
44456;SDS011;30159;49.316;8.558;2023-12-20T13:01:25;1.20;;;1.10;;
44456;SDS011;30159;49.316;8.558;2023-12-20T13:03:51;1.70;;;0.97;;
44456;SDS011;30159;49.316;8.558;2023-12-20T13:06:19;4.70;;;1.30;;
44456;SDS011;30159;49.316;8.558;2023-12-20T13:08:46;2.83;;;1.13;;
44456;SDS011;30159;49.316;8.558;2023-12-20T13:11:14;3.80;;;1.13;;
44456;SDS011;30159;49.316;8.558;2023-12-20T13:13:40;1.53;;;1.10;;
44456;SDS011;30159;49.316;8.558;2023-12-20T13:16:07;1.67;;;0.90;;
44456;SDS011;30159;49.316;8.558;2023-12-20T13:18:34;2.03;;;1.70;;
44456;SDS011;30159;49.316;8.558;2023-12-20T13:21:01;5.60;;;1.50;;
44456;SDS011;30159;49.316;8.558;2023-12-20T13:23:27;1.20;;;1.10;;
44456;SDS011;30159;49.316;8.558;2023-12-20T13:25:54;3.03;;;1.40;;
44456;SDS011;30159;49.316;8.558;2023-12-20T13:28:22;2.03;;;1.73;;
44456;SDS011;30159;49.316;8.558;2023-12-20T13:30:48;2.00;;;1.43;;
44456;SDS011;30159;49.316;8.558;2023-12-20T13:33:15;1.60;;;1.50;;
44456;SDS011;30159;49.316;8.558;2023-12-20T13:35:42;4.10;;;1.33;;
44456;SDS011;30159;49.316;8.558;2023-12-20T13:38:09;1.23;;;1.13;;
44456;SDS011;30159;49.316;8.558;2023-12-20T13:40:35;2.10;;;1.10;;
44456;SDS011;30159;49.316;8.558;2023-12-20T13:43:02;1.70;;;1.37;;
44456;SDS011;30159;49.316;8.558;2023-12-20T13:45:31;1.27;;;1.00;;
44456;SDS011;30159;49.316;8.558;2023-12-20T13:47:58;8.40;;;1.20;;
44456;SDS011;30159;49.316;8.558;2023-12-20T13:50:24;1.30;;;0.80;;
44456;SDS011;30159;49.316;8.558;2023-12-20T13:52:52;1.97;;;1.10;;
44456;SDS011;30159;49.316;8.558;2023-12-20T13:55:19;4.80;;;1.43;;
44456;SDS011;30159;49.316;8.558;2023-12-20T13:57:47;1.70;;;1.33;;
44456;SDS011;30159;49.316;8.558;2023-12-20T14:00:14;3.40;;;1.40;;
44456;SDS011;30159;49.316;8.558;2023-12-20T14:02:42;1.73;;;1.20;;
44456;SDS011;30159;49.316;8.558;2023-12-20T14:05:09;1.30;;;1.10;;
44456;SDS011;30159;49.316;8.558;2023-12-20T14:07:36;1.63;;;1.43;;
44456;SDS011;30159;49.316;8.558;2023-12-20T14:10:03;1.30;;;1.20;;
44456;SDS011;30159;49.316;8.558;2023-12-20T14:12:30;2.60;;;1.50;;
44456;SDS011;30159;49.316;8.558;2023-12-20T14:15:00;1.43;;;1.17;;
44456;SDS011;30159;49.316;8.558;2023-12-20T14:17:27;5.03;;;1.20;;
44456;SDS011;30159;49.316;8.558;2023-12-20T14:19:55;2.20;;;0.90;;
44456;SDS011;30159;49.316;8.558;2023-12-20T14:22:22;1.53;;;1.43;;
44456;SDS011;30159;49.316;8.558;2023-12-20T14:24:50;1.83;;;1.30;;
44456;SDS011;30159;49.316;8.558;2023-12-20T14:27:17;1.77;;;1.33;;
44456;SDS011;30159;49.316;8.558;2023-12-20T14:29:46;2.67;;;1.37;;
44456;SDS011;30159;49.316;8.558;2023-12-20T14:32:12;1.13;;;1.00;;
44456;SDS011;30159;49.316;8.558;2023-12-20T14:34:40;2.57;;;1.20;;
44456;SDS011;30159;49.316;8.558;2023-12-20T14:37:08;5.50;;;1.03;;
44456;SDS011;30159;49.316;8.558;2023-12-20T14:39:35;1.33;;;0.97;;
44456;SDS011;30159;49.316;8.558;2023-12-20T14:42:04;10.03;;;1.00;;
44456;SDS011;30159;49.316;8.558;2023-12-20T14:44:31;2.73;;;0.87;;
44456;SDS011;30159;49.316;8.558;2023-12-20T14:46:58;2.80;;;0.90;;
44456;SDS011;30159;49.316;8.558;2023-12-20T14:49:27;3.60;;;1.10;;
44456;SDS011;30159;49.316;8.558;2023-12-20T14:51:54;2.43;;;1.23;;